地図

経路データ

SID SEASON NUMBER BASIN SUBBASIN NAME ISO_TIME NATURE LAT LON WMO_WIND WMO_PRES WMO_AGENCY TRACK_TYPE DIST2LAND LANDFALL IFLAG USA_AGENCY USA_ATCF_ID USA_LAT USA_LON USA_RECORD USA_STATUS USA_WIND USA_PRES USA_SSHS USA_R34_NE USA_R34_SE USA_R34_SW USA_R34_NW USA_R50_NE USA_R50_SE USA_R50_SW USA_R50_NW USA_R64_NE USA_R64_SE USA_R64_SW USA_R64_NW USA_POCI USA_ROCI USA_RMW USA_EYE TOKYO_LAT TOKYO_LON TOKYO_GRADE TOKYO_WIND TOKYO_PRES TOKYO_R50_DIR TOKYO_R50_LONG TOKYO_R50_SHORT TOKYO_R30_DIR TOKYO_R30_LONG TOKYO_R30_SHORT TOKYO_LAND CMA_LAT CMA_LON CMA_CAT CMA_WIND CMA_PRES HKO_LAT HKO_LON HKO_CAT HKO_WIND HKO_PRES NEWDELHI_LAT NEWDELHI_LON NEWDELHI_GRADE NEWDELHI_WIND NEWDELHI_PRES NEWDELHI_CI NEWDELHI_DP NEWDELHI_POCI REUNION_LAT REUNION_LON REUNION_TYPE REUNION_WIND REUNION_PRES REUNION_TNUM REUNION_CI REUNION_RMW REUNION_R34_NE REUNION_R34_SE REUNION_R34_SW REUNION_R34_NW REUNION_R50_NE REUNION_R50_SE REUNION_R50_SW REUNION_R50_NW REUNION_R64_NE REUNION_R64_SE REUNION_R64_SW REUNION_R64_NW BOM_LAT BOM_LON BOM_TYPE BOM_WIND BOM_PRES BOM_TNUM BOM_CI BOM_RMW BOM_R34_NE BOM_R34_SE BOM_R34_SW BOM_R34_NW BOM_R50_NE BOM_R50_SE BOM_R50_SW BOM_R50_NW BOM_R64_NE BOM_R64_SE BOM_R64_SW BOM_R64_NW BOM_ROCI BOM_POCI BOM_EYE BOM_POS_METHOD BOM_PRES_METHOD NADI_LAT NADI_LON NADI_CAT NADI_WIND NADI_PRES WELLINGTON_LAT WELLINGTON_LON WELLINGTON_WIND WELLINGTON_PRES DS824_LAT DS824_LON DS824_STAGE DS824_WIND DS824_PRES TD9636_LAT TD9636_LON TD9636_STAGE TD9636_WIND TD9636_PRES TD9635_LAT TD9635_LON TD9635_WIND TD9635_PRES TD9635_ROCI NEUMANN_LAT NEUMANN_LON NEUMANN_CLASS NEUMANN_WIND NEUMANN_PRES MLC_LAT MLC_LON MLC_CLASS MLC_WIND MLC_PRES USA_GUST BOM_GUST BOM_GUST_PER REUNION_GUST REUNION_GUST_PER USA_SEAHGT USA_SEARAD_NE USA_SEARAD_SE USA_SEARAD_SW USA_SEARAD_NW STORM_SPEED STORM_DIR
1934048S11049 1934 12 SI MM NOT_NAMED 1934-02-17 06:00:00 NR -11.0000 49.2000 reunion main 123 112 _____O________ -1 -11.0000 49.2000 99 9.90000 4 232
1934048S11049 1934 12 SI MM NOT_NAMED 1934-02-17 09:00:00 NR -11.1278 49.0274 main 114 103 _____P________ -1 -11.1278 49.0274 99 3 236
1934048S11049 1934 12 SI MM NOT_NAMED 1934-02-17 12:00:00 NR -11.1923 48.9105 main 105 99 _____P____O___ -1 -11.2564 48.8474 99 -11.0000 49.1000 4 4 240
1934048S11049 1934 12 SI MM NOT_NAMED 1934-02-17 15:00:00 NR -11.3473 48.6400 main 110 102 _____P____P___ -1 -11.3869 48.6526 99 -11.2679 48.6149 4 7 241
1934048S11049 1934 12 SI MM NOT_NAMED 1934-02-17 18:00:00 NR -11.5237 48.3062 main 117 117 _____P____P___ -1 -11.5203 48.4358 99 -11.5283 48.1334 4 8 242
1934048S11049 1934 12 SI MM NOT_NAMED 1934-02-17 21:00:00 NR -11.7159 47.9249 main 132 132 _____P____P___ -1 -11.6573 48.1895 99 -11.7746 47.6602 4 9 243
1934048S11049 1934 12 SI MM NOT_NAMED 1934-02-18 00:00:00 TS -11.9107 47.5140 main 156 156 _____P___OO___ -1 -11.7991 47.9064 99 -12.0000 47.2000 TC 65 -12.0000 47.2000 4 9 245
1934048S11049 1934 12 SI MM NOT_NAMED 1934-02-18 03:00:00 TS -12.1007 47.0830 main 190 190 _____P___PP___ -1 -11.9464 47.5791 99 -12.2102 46.7477 TC 65 -12.2002 46.7546 4 9 247
1934048S11049 1934 12 SI MM NOT_NAMED 1934-02-18 06:00:00 TS -12.2834 46.6325 reunion main 210 210 _____O___OP___ -1 -12.1000 47.2000 99 9.90000 -12.4000 46.3000 TC 65 -12.3794 46.3145 4 10 249
1934048S11049 1934 12 SI MM NOT_NAMED 1934-02-18 09:00:00 TS -12.4538 46.1633 main 228 228 _____P___PP___ -1 -12.2601 46.7653 99 -12.5574 45.8574 TC 65 -12.5439 45.8671 4 10 250
1934048S11049 1934 12 SI MM NOT_NAMED 1934-02-18 12:00:00 TS -12.6079 45.6953 main 268 268 _____P___OO___ -1 -12.4238 46.2860 99 -12.7000 45.4000 TC 65 -12.7000 45.4000 4 10 252
1934048S11049 1934 12 SI MM NOT_NAMED 1934-02-18 15:00:00 TS -12.7705 45.1799 main 309 309 _____P___PP___ -1 -12.5878 45.7766 99 -12.8499 44.9149 TC 65 -12.8739 44.8481 4 11 253
1934048S11049 1934 12 SI MM NOT_NAMED 1934-02-18 18:00:00 TS -12.9290 44.6450 main 351 338 _____P___OP___ -1 -12.7488 45.2521 99 -13.0000 44.4000 TC 65 -13.0382 44.2829 4 11 253
1934048S11049 1934 12 SI MM NOT_NAMED 1934-02-18 21:00:00 TS -13.0840 44.0970 main 342 325 _____P___PP___ -1 -12.9035 44.7272 99 -13.1652 43.8126 TC 65 -13.1833 43.7512 4 11 254
1934048S11049 1934 12 SI MM NOT_NAMED 1934-02-19 00:00:00 TS -13.2163 43.6056 main 325 292 _____P___OO___ -1 -13.0489 44.2169 99 -13.3000 43.3000 TC 65 -13.3000 43.3000 4 9 255
1934048S11049 1934 12 SI MM NOT_NAMED 1934-02-19 03:00:00 TS -13.3069 43.2434 main 281 259 _____P___PP___ -1 -13.1821 43.7362 99 -13.3648 42.9974 TC 65 -13.3740 42.9965 4 7 256
1934048S11049 1934 12 SI MM NOT_NAMED 1934-02-19 06:00:00 TS -13.3739 42.9582 reunion main 259 227 _____O___OP___ -1 -13.3000 43.3000 99 9.90000 -13.4000 42.8000 TC 65 -13.4216 42.7745 4 5 256
1934048S11049 1934 12 SI MM NOT_NAMED 1934-02-19 09:00:00 TS -13.4328 42.7177 main 227 205 _____P___PP___ -1 -13.3900 42.9553 99 -13.4499 42.6075 TC 65 -13.4585 42.5903 4 5 256
1934048S11049 1934 12 SI MM NOT_NAMED 1934-02-19 12:00:00 TS -13.4884 42.4834 main 205 173 _____P___OO___ -1 -13.4651 42.6501 99 -13.5000 42.4000 TC 65 -13.5000 42.4000 4 5 257
1934048S11049 1934 12 SI MM NOT_NAMED 1934-02-19 15:00:00 TS -13.5465 42.2057 main 173 140 _____P___PP___ -1 -13.5290 42.3783 99 -13.5425 42.1075 TC 65 -13.5679 42.1313 4 6 257
1934048S11049 1934 12 SI MM NOT_NAMED 1934-02-19 18:00:00 TS -13.6092 41.9279 main 140 119 _____P___OP___ -1 -13.5850 42.1336 99 -13.6000 41.8000 TC 65 -13.6426 41.8500 4 5 255
1934048S11049 1934 12 SI MM NOT_NAMED 1934-02-19 21:00:00 TS -13.6859 41.6737 main 119 89 _____P___PP___ -1 -13.6367 41.9098 99 -13.7000 41.5425 TC 65 -13.7210 41.5688 4 5 252
1934048S11049 1934 12 SI MM NOT_NAMED 1934-02-20 00:00:00 TS -13.7625 41.4335 main 89 68 _____P___OO___ -1 -13.6875 41.7004 99 -13.8000 41.3000 TC 65 -13.8000 41.3000 4 5 254
1934048S11049 1934 12 SI MM NOT_NAMED 1934-02-20 03:00:00 TS -13.8219 41.1981 main 68 44 _____P___PP___ -1 -13.7408 41.4992 99 -13.8500 41.0424 TC 65 -13.8749 41.0525 4 5 255
1934048S11049 1934 12 SI MM NOT_NAMED 1934-02-20 06:00:00 TS -13.8833 40.9733 reunion main 44 21 _____O___OP___ -1 -13.8000 41.3000 99 9.90000 -13.9000 40.8000 TC 65 -13.9499 40.8200 4 5 252
1934048S11049 1934 12 SI MM NOT_NAMED 1934-02-20 09:00:00 TS -13.9638 40.7529 main 21 0 _____P___PP___ -1 -13.8666 41.0638 99 -14.0000 40.5925 TC 65 -14.0249 40.6025 4 4 249
1934048S11049 1934 12 SI MM NOT_NAMED 1934-02-20 12:00:00 TS -14.0454 40.5443 main 0 0 _____P___OO___ -1 -13.9361 40.8329 99 -14.1000 40.4000 TC 65 -14.1000 40.4000 4 4 250
1934048S11049 1934 12 SI MM NOT_NAMED 1934-02-20 15:00:00 TS -14.1075 40.3396 main 0 0 _____P___PP___ -1 -14.0100 40.6079 99 -14.1500 40.1925 TC 65 -14.1627 40.2186 4 4 252
1934048S11049 1934 12 SI MM NOT_NAMED 1934-02-20 18:00:00 TS -14.1724 40.1465 main 0 0 _____P___OP___ -1 -14.0898 40.3896 99 -14.2000 40.0000 TC 65 -14.2273 40.0498 4 4 247
1934048S11049 1934 12 SI MM NOT_NAMED 1934-02-20 21:00:00 TS -14.2551 39.9725 main 0 0 _____P___PP___ -1 -14.1772 40.1789 99 -14.2849 39.8575 TC 65 -14.3033 39.8811 4 4 242
1934048S11049 1934 12 SI MM NOT_NAMED 1934-02-21 00:00:00 TS -14.3579 39.7922 main 0 0 _____P___OO___ -1 -14.2737 39.9766 99 -14.4000 39.7000 TC 65 -14.4000 39.7000 4 5 240
1934048S11049 1934 12 SI MM NOT_NAMED 1934-02-21 03:00:00 TS -14.4812 39.5714 main 0 0 _____P___PP___ -1 -14.3807 39.7833 99 -14.5425 39.4575 TC 65 -14.5204 39.4732 4 5 239
1934048S11049 1934 12 SI MM NOT_NAMED 1934-02-21 06:00:00 TS -14.6209 39.3450 reunion main 0 0 _____O___OP___ -1 -14.5000 39.6000 99 9.90000 -14.7000 39.2000 TC 65 -14.6626 39.2351 4 5 236
1934048S11049 1934 12 SI MM NOT_NAMED 1934-02-21 09:00:00 TS -14.7669 39.1286 main 0 0 _____P___PP___ -1 -14.6346 39.3889 99 -14.8425 38.9924 TC 65 -14.8235 39.0044 4 5 233
1934048S11049 1934 12 SI MM NOT_NAMED 1934-02-21 12:00:00 TS -14.9273 38.9279 main 0 0 _____P___OO___ -1 -14.7819 39.1836 99 -15.0000 38.8000 TC 65 -15.0000 38.8000 4 5 229
1934048S11049 1934 12 SI MM NOT_NAMED 1934-02-21 15:00:00 TS -15.1072 38.7244 main 0 0 _____P___PP___ -1 -14.9394 38.9900 99 -15.1925 38.5775 TC 65 -15.1896 38.6058 4 5 224
1934048S11049 1934 12 SI MM NOT_NAMED 1934-02-21 18:00:00 TS -15.2991 38.5530 main 0 0 _____P___OP___ -1 -15.1050 38.8138 99 -15.4000 38.4000 TC 65 -15.3924 38.4453 4 5 216
1934048S11049 1934 12 SI MM NOT_NAMED 1934-02-21 21:00:00 TS -15.4917 38.4343 main 0 0 _____P___PP___ -1 -15.2761 38.6608 99 -15.6000 38.3050 TC 65 -15.5990 38.3371 4 4 203
1934048S11049 1934 12 SI MM NOT_NAMED 1934-02-22 00:00:00 TS -15.6835 38.3790 main 0 0 _____P___OO___ -1 -15.4506 38.5369 99 -15.8000 38.3000 TC 65 -15.8000 38.3000 4 4 186
1934048S11049 1934 12 SI MM NOT_NAMED 1934-02-22 03:00:00 TS -15.8733 38.3930 main 0 0 _____P___PP___ -1 -15.6260 38.4480 99 -16.0075 38.3700 TC 65 -15.9863 38.3609 4 4 168
1934048S11049 1934 12 SI MM NOT_NAMED 1934-02-22 06:00:00 TS -16.0550 38.4632 reunion main 0 0 _____O___OP___ -1 -15.8000 38.4000 99 9.90000 -16.2000 38.5000 TC 65 -16.1651 38.4896 4 4 153
1934048S11049 1934 12 SI MM NOT_NAMED 1934-02-22 09:00:00 TS -16.2054 38.5728 main 0 0 _____P___PP___ -1 -15.9224 38.4199 99 -16.3575 38.6500 TC 65 -16.3363 38.6485 4 4 143
1934048S11049 1934 12 SI MM NOT_NAMED 1934-02-22 12:00:00 TS -16.3466 38.6946 main 0 0 _____P___OO___ -1 -16.0399 38.4838 99 -16.5000 38.8000 TC 65 -16.5000 38.8000 4 3 141
1934048S11049 1934 12 SI MM NOT_NAMED 1934-02-22 15:00:00 TS -16.4757 38.7979 main 0 0 _____P___PP___ -1 -16.1607 38.5812 99 -16.6500 38.9150 TC 65 -16.6165 38.8976 4 3 144
1934048S11049 1934 12 SI MM NOT_NAMED 1934-02-22 18:00:00 TS -16.6085 38.8938 main 0 0 _____P___OP___ -1 -16.2930 38.7014 99 -16.8000 39.0000 TC 65 -16.7325 38.9802 4 3 147
1934048S11049 1934 12 SI MM NOT_NAMED 1934-02-22 21:00:00 TS -16.7465 38.9797 main 0 0 _____P___PP___ -1 -16.4448 38.8339 99 -16.9125 39.0576 TC 65 -16.8822 39.0476 4 4 155
1934048S11049 1934 12 SI MM NOT_NAMED 1934-02-23 00:00:00 TS -16.9415 39.0561 main 0 0 _____P___OO___ -1 -16.6245 38.9682 99 -17.1000 39.1000 TC 65 -17.1000 39.1000 4 5 164
1934048S11049 1934 12 SI MM NOT_NAMED 1934-02-23 03:00:00 TS -17.2409 39.1315 main 22 22 _____P___PP___ -1 -16.8401 39.0938 99 -17.4625 39.1574 TC 65 -17.4200 39.1434 4 7 169
1934048S11049 1934 12 SI MM NOT_NAMED 1934-02-23 06:00:00 TS -17.6033 39.1908 reunion main 67 67 _____O___OP___ -1 -17.1000 39.2000 99 9.90000 -17.9000 39.2000 TC 65 -17.8100 39.1725 4 8 174
1934048S11049 1934 12 SI MM NOT_NAMED 1934-02-23 09:00:00 TS -17.9953 39.2107 main 112 112 _____P___PP___ -1 -17.4483 39.2342 99 -18.2925 39.2076 TC 65 -18.2450 39.1903 4 8 0
1934048S11049 1934 12 SI MM NOT_NAMED 1934-02-23 12:00:00 TS -18.4145 39.2174 main 154 154 _____P___OO___ -1 -17.8436 39.2522 99 -18.7000 39.2000 TC 65 -18.7000 39.2000 4 9 178
1934048S11049 1934 12 SI MM NOT_NAMED 1934-02-23 15:00:00 TS -18.8572 39.2207 main 208 208 _____P___PP___ -1 -18.2733 39.2589 99 -19.1425 39.2000 TC 65 -19.1559 39.2033 4 9 179
1934048S11049 1934 12 SI MM NOT_NAMED 1934-02-23 18:00:00 TS -19.3158 39.2199 main 251 251 _____P___OP___ -1 -18.7249 39.2594 99 -19.6000 39.2000 TC 65 -19.6225 39.2002 4 9 182
1934048S11049 1934 12 SI MM NOT_NAMED 1934-02-23 21:00:00 TS -19.7762 39.2186 main 299 299 _____P___PP___ -1 -19.1859 39.2587 99 -20.0650 39.2000 TC 65 -20.0778 39.1970 4 9 0
1934048S11049 1934 12 SI MM NOT_NAMED 1934-02-24 00:00:00 TS -20.2146 39.2206 main 329 329 _____P___OO___ -1 -19.6438 39.2618 99 -20.5000 39.2000 TC 65 -20.5000 39.2000 4 8 0
1934048S11049 1934 12 SI MM NOT_NAMED 1934-02-24 03:00:00 TS -20.6091 39.2200 main 358 358 _____P___PP___ -1 -20.0860 39.2738 99 -20.8725 39.1925 TC 65 -20.8690 39.1937 4 8 0
1934048S11049 1934 12 SI MM NOT_NAMED 1934-02-24 06:00:00 TS -20.9674 39.2327 reunion main 383 383 _____O___OP___ -1 -20.5000 39.3000 99 9.90000 -21.2000 39.2000 TC 65 -21.2023 39.1980 4 7 177
1934048S11049 1934 12 SI MM NOT_NAMED 1934-02-24 09:00:00 TS -21.2909 39.2717 main 405 397 _____P___PP___ -1 -20.8558 39.3592 99 -21.5075 39.2276 TC 65 -21.5095 39.2282 4 6 171
1934048S11049 1934 12 SI MM NOT_NAMED 1934-02-24 12:00:00 TS -21.5968 39.3437 main 397 382 _____P___OO___ -1 -21.1905 39.4312 99 -21.8000 39.3000 TC 65 -21.8000 39.3000 4 6 164
1934048S11049 1934 12 SI MM NOT_NAMED 1934-02-24 15:00:00 TS -21.9088 39.4629 main 382 370 _____P___PP___ -1 -21.5049 39.5137 99 -22.1075 39.4275 TC 65 -22.1139 39.4476 4 7 158
1934048S11049 1934 12 SI MM NOT_NAMED 1934-02-24 18:00:00 TS -22.2034 39.6128 main 370 349 _____P___OP___ -1 -21.7998 39.6042 99 -22.4000 39.6000 TC 65 -22.4103 39.6342 4 6 153
1934048S11049 1934 12 SI MM NOT_NAMED 1934-02-24 21:00:00 TS -22.4775 39.7789 main 350 340 _____P___PP___ -1 -22.0760 39.7005 99 -22.6800 39.8074 TC 65 -22.6764 39.8288 4 6 150
1934048S11049 1934 12 SI MM NOT_NAMED 1934-02-25 00:00:00 TS -22.7114 39.9334 main 341 331 _____P___OO___ -1 -22.3343 39.8001 99 -22.9000 40.0000 TC 65 -22.9000 40.0000 4 5 149
1934048S11049 1934 12 SI MM NOT_NAMED 1934-02-25 03:00:00 TS -22.8820 40.0412 main 335 325 _____P___PP___ -1 -22.5753 39.9008 99 -23.0150 40.1226 TC 65 -23.0558 40.1002 4 4 151
1934048S11049 1934 12 SI MM NOT_NAMED 1934-02-25 06:00:00 TS -23.0241 40.1244 reunion main 327 320 _____O___OP___ -1 -22.8000 40.0000 99 9.90000 -23.1000 40.2000 TC 65 -23.1723 40.1731 4 3 154
1934048S11049 1934 12 SI MM NOT_NAMED 1934-02-25 09:00:00 TS -23.1727 40.1946 main 323 317 _____P___PP___ -1 -23.0054 40.0992 99 -23.2350 40.2501 TC 65 -23.2777 40.2345 4 3 157
1934048S11049 1934 12 SI MM NOT_NAMED 1934-02-25 12:00:00 TS -23.3301 40.2666 main 317 316 _____P___OO___ -1 -23.1903 40.1997 99 -23.4000 40.3000 TC 65 -23.4000 40.3000 4 4 155
1934048S11049 1934 12 SI MM NOT_NAMED 1934-02-25 15:00:00 TS -23.5065 40.3655 main 316 312 _____P___PP___ -1 -23.3608 40.2992 99 -23.5925 40.3925 TC 65 -23.5663 40.4049 4 4 153
1934048S11049 1934 12 SI MM NOT_NAMED 1934-02-25 18:00:00 TS -23.6925 40.4700 main 312 305 _____P___OP___ -1 -23.5226 40.3953 99 -23.8000 40.5000 TC 65 -23.7551 40.5148 4 4 154
1934048S11049 1934 12 SI MM NOT_NAMED 1934-02-25 21:00:00 TS -23.8801 40.5702 main 305 298 _____P___PP___ -1 -23.6815 40.4857 99 -23.9925 40.6075 TC 65 -23.9663 40.6174 4 4 157
1934048S11049 1934 12 SI MM NOT_NAMED 1934-02-26 00:00:00 TS -24.0812 40.6561 main 298 298 _____P___OO___ -1 -23.8435 40.5682 99 -24.2000 40.7000 TC 65 -24.2000 40.7000 4 4 162
1934048S11049 1934 12 SI MM NOT_NAMED 1934-02-26 03:00:00 TS -24.3023 40.7201 main 301 297 _____P___PP___ -1 -24.0144 40.6404 99 -24.4350 40.7650 TC 65 -24.4575 40.7547 4 5 169
1934048S11049 1934 12 SI MM NOT_NAMED 1934-02-26 06:00:00 TS -24.5450 40.7625 reunion main 297 297 _____O___OP___ -1 -24.2000 40.7000 99 9.90000 -24.7000 40.8000 TC 65 -24.7350 40.7875 4 5 174
1934048S11049 1934 12 SI MM NOT_NAMED 1934-02-26 09:00:00 TS -24.8095 40.7882 main 303 303 _____P___PP___ -1 -24.4086 40.7555 99 -25.0000 40.8075 TC 65 -25.0200 40.8016 4 5 176
1934048S11049 1934 12 SI MM NOT_NAMED 1934-02-26 12:00:00 TS -25.0761 40.8000 main 307 307 _____P___OO___ -1 -24.6283 40.8001 99 -25.3000 40.8000 TC 65 -25.3000 40.8000 4 5 0
1934048S11049 1934 12 SI MM NOT_NAMED 1934-02-26 15:00:00 TS -25.3274 40.8089 main 312 312 _____P___PP___ -1 -24.8594 40.8331 99 -25.5575 40.8075 TC 65 -25.5653 40.7860 4 5 0
1934048S11049 1934 12 SI MM NOT_NAMED 1934-02-26 18:00:00 TS -25.5262 40.8104 main 318 318 _____P___OP___ -1 -25.1024 40.8539 99 -25.8000 40.8000 TC 65 -25.8175 40.7626 4 4 0
1934048S11049 1934 12 SI MM NOT_NAMED 1934-02-26 21:00:00 TS -25.7059 40.8041 main 325 325 _____P___PP___ -1 -25.3575 40.8617 99 -26.0475 40.7601 TC 65 -26.0609 40.7329 4 3 0
1934048S11049 1934 12 SI MM NOT_NAMED 1934-02-27 00:00:00 TS -25.8501 40.8039 main 334 334 _____P___OO___ -1 -25.6252 40.8558 99 -26.3000 40.7000 TC 65 -26.3000 40.7000 4 2 167
1934048S11049 1934 12 SI MM NOT_NAMED 1934-02-27 03:00:00 NR -25.9059 40.8355 main 334 334 _____P________ -1 -25.9059 40.8355 99 TC 4 4 0
1934048S11049 1934 12 SI MM NOT_NAMED 1934-02-27 06:00:00 NR -26.2000 40.8000 reunion main 347 347 _____O________ -1 -26.2000 40.8000 99 9.90000 4 6 188
1934048S11049 1934 12 SI MM NOT_NAMED 1934-02-27 09:00:00 NR -26.5414 40.7415 main 370 370 _____P________ -1 -26.5414 40.7415 99 4 7 190
1934048S11049 1934 12 SI MM NOT_NAMED 1934-02-27 12:00:00 NR -26.9021 40.6647 main 392 392 _____P________ -1 -26.9021 40.6647 99 7 192
1934048S11049 1934 12 SI MM NOT_NAMED 1934-02-27 15:00:00 NR -27.2718 40.5746 main 425 425 _____P________ -1 -27.2718 40.5746 99 8 193
1934048S11049 1934 12 SI MM NOT_NAMED 1934-02-27 18:00:00 NR -27.6404 40.4761 main 453 453 _____P________ -1 -27.6404 40.4761 99 8 194
1934048S11049 1934 12 SI MM NOT_NAMED 1934-02-27 21:00:00 NR -27.9976 40.3742 main 490 490 _____P________ -1 -27.9976 40.3742 99 7 194
1934048S11049 1934 12 SI MM NOT_NAMED 1934-02-28 00:00:00 NR -28.3334 40.2740 main 520 520 _____P________ -1 -28.3334 40.2740 99 7 195
1934048S11049 1934 12 SI MM NOT_NAMED 1934-02-28 03:00:00 NR -28.6376 40.1808 main 550 550 _____P________ -1 -28.6376 40.1808 99 6 195
1934048S11049 1934 12 SI MM NOT_NAMED 1934-02-28 06:00:00 NR -28.9000 40.1000 reunion main 582 582 _____O________ -1 -28.9000 40.1000 99 9.90000 5 195
1934048S11049 1934 12 SI MM NOT_NAMED 1934-02-28 09:00:00 NR -29.1133 40.0356 main 605 605 _____P________ -1 -29.1133 40.0356 99 4 194
1934048S11049 1934 12 SI MM NOT_NAMED 1934-02-28 12:00:00 NR -29.2812 39.9869 main 621 621 _____P________ -1 -29.2812 39.9869 99 3 192
1934048S11049 1934 12 SI MM NOT_NAMED 1934-02-28 15:00:00 NR -29.4103 39.9516 main 630 630 _____P________ -1 -29.4103 39.9516 99 2 195
1934048S11049 1934 12 SI MM NOT_NAMED 1934-02-28 18:00:00 NR -29.5071 39.9277 main 645 645 _____P________ -1 -29.5071 39.9277 99 2 194
1934048S11049 1934 12 SI MM NOT_NAMED 1934-02-28 21:00:00 NR -29.5780 39.9128 main 653 653 _____P________ -1 -29.5780 39.9128 99 1 192
1934048S11049 1934 12 SI MM NOT_NAMED 1934-03-01 00:00:00 NR -29.6294 39.9047 main 653 653 _____P________ -1 -29.6294 39.9047 99 1 0
1934048S11049 1934 12 SI MM NOT_NAMED 1934-03-01 03:00:00 NR -29.6679 39.9012 main 661 661 _____P________ -1 -29.6679 39.9012 99 1 0
1934048S11049 1934 12 SI MM NOT_NAMED 1934-03-01 06:00:00 NR -29.7000 39.9000 reunion main 661 _____O________ -1 -29.7000 39.9000 99 9.90000 1 216

IBTrACS Databaseについて

本データベースは、米国NOAAが公開する1842年以降の世界の熱帯低気圧のベストトラックデータアーカイブInternational Best Track Archive for Climate Stewardship (IBTrACS)を、ウェブで閲覧しやすい形式に変換したものです。

最終更新日:2021-10-08